Time;durP1;ratioP1;P1;durP2;ratioP2;P2;SDS_P1;SDS_P2;PMS_P1;PMS_P2;Temp;Humidity;BMP_temperature;BMP_pressure;BME280_temperature;BME280_humidity;BME280_pressure;Samples;Min_cycle;Max_cycle;Signal;HPM_P1;HPM_P2
2023/12/31 00:02:05;;;;;;;;;;;;;;;;;;4977168;28;19989;-82
2023/12/31 00:04:32;;;;;;;;;;;;;;;;;;4978594;28;19921;-83
2023/12/31 00:06:58;;;;;;;;;;;;;;;;;;4978480;28;19925;-82
2023/12/31 00:09:25;;;;;;;;;;;;;;;;;;4977432;28;20195;-83
2023/12/31 00:11:52;;;;;;;;;;;;;;;;;;4978750;28;19922;-83
2023/12/31 00:14:18;;;;;;;;;;;;;;;;;;4993394;28;20353;-83
2023/12/31 00:16:45;;;;;;;;;;;;;;;;;;4977126;28;19989;-83
2023/12/31 00:19:12;;;;;;;;;;;;;;;;;;4976934;28;19925;-84
2023/12/31 00:21:42;;;;;;;;;;;;;;;;;;4977829;28;19979;-83
2023/12/31 00:24:09;;;;;;;;;;;;;;;;;;4993628;28;19983;-84
2023/12/31 00:26:36;;;;;;;;;;;;;;;;;;4977085;28;20361;-83
2023/12/31 00:29:03;;;;;;;;;;;;;;;;;;4976900;28;19921;-81
2023/12/31 00:31:29;;;;;;;;;;;;;;;;;;4975014;28;19922;-82
2023/12/31 00:33:57;;;;;;;;;;;;;;;;;;4978102;28;19922;-82
2023/12/31 00:36:24;;;;;;;;;;;;;;;;;;4977241;28;19930;-82
2023/12/31 00:38:52;;;;;;;;;;;;;;;;;;4993992;28;19922;-82
2023/12/31 00:41:19;;;;;;;;;;;;;;;;;;4993167;28;19985;-82
2023/12/31 00:43:46;;;;;;;;;;;;;;;;;;4977622;28;19921;-83
2023/12/31 00:46:13;;;;;;;;;;;;;;;;;;4994368;28;19921;-83
2023/12/31 00:48:40;;;;;;;;;;;;;;;;;;4978138;28;20408;-82
2023/12/31 00:51:07;;;;;;;;;;;;;;;;;;4977905;28;19922;-83
2023/12/31 00:53:34;;;;;;;;;;;;;;;;;;4977284;28;19960;-83
2023/12/31 00:56:00;;;;;;;;;;;;;;;;;;4992031;28;19921;-83
2023/12/31 00:58:27;;;;;;;;;;;;;;;;;;4975245;28;19929;-83
2023/12/31 01:00:54;;;;;;;;;;;;;;;;;;4975796;28;19925;-83
2023/12/31 01:03:20;;;;;;;;;;;;;;;;;;4975238;28;19945;-84
2023/12/31 01:05:47;;;;;;;;;;;;;;;;;;4975698;28;19996;-83
2023/12/31 01:08:14;;;;;;;;;;;;;;;;;;4991304;28;19976;-83
2023/12/31 01:10:40;;;;;;;;;;;;;;;;;;4991236;28;20032;-83
2023/12/31 01:13:07;;;;;;;;;;;;;;;;;;4975015;28;19979;-83
2023/12/31 01:15:34;;;;;;;;;;;;;;;;;;4975357;28;20445;-83
2023/12/31 01:18:00;;;;;;;;;;;;;;;;;;4975510;28;19921;-83
2023/12/31 01:20:27;;;;;;;;;;;;;;;;;;4974767;28;20001;-83
2023/12/31 01:22:54;;;;;;;;;;;;;;;;;;4991034;28;20276;-83
2023/12/31 01:25:20;;;;;;;;;;;;;;;;;;4991901;28;20353;-83
2023/12/31 01:27:47;;;;;;;;;;;;;;;;;;4993030;28;19922;-84
2023/12/31 01:30:14;;;;;;;;;;;;;;;;;;4976266;28;19943;-83
2023/12/31 01:32:40;;;;;;;;;;;;;;;;;;4997091;28;19921;-83
2023/12/31 01:35:07;;;;;;;;;;;;;;;;;;4995740;28;19948;-84
2023/12/31 01:37:34;;;;;;;;;;;;;;;;;;5012269;28;19981;-83
2023/12/31 01:40:01;;;;;;;;;;;;;;;;;;4995865;28;19964;-84
2023/12/31 01:42:27;;;;;;;;;;;;;;;;;;4995150;28;19964;-83
2023/12/31 01:44:54;;;;;;;;;;;;;;;;;;5013450;28;19929;-81
2023/12/31 01:47:21;;;;;;;;;;;;;;;;;;4995399;28;19921;-81
2023/12/31 01:49:48;;;;;;;;;;;;;;;;;;4995882;28;19977;-80
2023/12/31 01:52:15;;;;;;;;;;;;;;;;;;4994934;28;20376;-81
2023/12/31 01:54:42;;;;;;;;;;;;;;;;;;4995798;28;19928;-80
2023/12/31 01:57:10;;;;;;;;;;;;;;;;;;4995449;28;19925;-81
2023/12/31 01:59:37;;;;;;;;;;;;;;;;;;4995507;28;19921;-81
2023/12/31 02:02:04;;;;;;;;;;;;;;;;;;4994740;28;20016;-79
2023/12/31 02:04:32;;;;;;;;;;;;;;;;;;4995802;28;19921;-82
2023/12/31 02:07:00;;;;;;;;;;;;;;;;;;4995854;28;19925;-82
2023/12/31 02:09:27;;;;;;;;;;;;;;;;;;5011079;28;19975;-81
2023/12/31 02:11:55;;;;;;;;;;;;;;;;;;4976373;28;19921;-81
2023/12/31 02:14:21;;;;;;;;;;;;;;;;;;4991795;28;19953;-82
2023/12/31 02:16:48;;;;;;;;;;;;;;;;;;4993906;28;20285;-82
2023/12/31 02:19:15;;;;;;;;;;;;;;;;;;4991702;28;19968;-82
2023/12/31 02:21:41;;;;;;;;;;;;;;;;;;4976425;28;19922;-82
2023/12/31 02:24:11;;;;;;;;;;;;;;;;;;4975934;28;20028;-82
2023/12/31 02:26:37;;;;;;;;;;;;;;;;;;4995331;28;20348;-82
2023/12/31 02:29:04;;;;;;;;;;;;;;;;;;4995093;28;20293;-82
2023/12/31 02:31:33;;;;;;;;;;;;;;;;;;4995331;28;19925;-82
2023/12/31 02:34:00;;;;;;;;;;;;;;;;;;4995628;28;20186;-82
2023/12/31 02:36:27;;;;;;;;;;;;;;;;;;4995116;28;19922;-82
2023/12/31 02:38:54;;;;;;;;;;;;;;;;;;4995582;28;19922;-82
2023/12/31 02:41:20;;;;;;;;;;;;;;;;;;5011331;28;19929;-82
2023/12/31 02:43:47;;;;;;;;;;;;;;;;;;4995595;28;19932;-82
2023/12/31 02:46:14;;;;;;;;;;;;;;;;;;5011019;28;19933;-82
2023/12/31 02:48:40;;;;;;;;;;;;;;;;;;4995368;28;20007;-82
2023/12/31 02:51:07;;;;;;;;;;;;;;;;;;4994805;28;19944;-82
2023/12/31 02:53:34;;;;;;;;;;;;;;;;;;4995555;28;20256;-82
2023/12/31 02:56:00;;;;;;;;;;;;;;;;;;4998883;28;19921;-82
2023/12/31 02:58:27;;;;;;;;;;;;;;;;;;4998457;28;20004;-82
2023/12/31 03:00:54;;;;;;;;;;;;;;;;;;4998893;28;19971;-82
2023/12/31 03:03:20;;;;;;;;;;;;;;;;;;5014487;28;19922;-82
2023/12/31 03:05:47;;;;;;;;;;;;;;;;;;5015153;28;19972;-82
2023/12/31 03:08:14;;;;;;;;;;;;;;;;;;4998324;28;19933;-82
2023/12/31 03:10:40;;;;;;;;;;;;;;;;;;5004598;28;19928;-82
2023/12/31 03:13:07;;;;;;;;;;;;;;;;;;4979104;28;20298;-82
2023/12/31 03:15:34;;;;;;;;;;;;;;;;;;4979139;28;19921;-82
2023/12/31 03:18:01;;;;;;;;;;;;;;;;;;4995431;28;20000;-82
2023/12/31 03:20:27;;;;;;;;;;;;;;;;;;4978490;28;20341;-82
2023/12/31 03:22:54;;;;;;;;;;;;;;;;;;4979130;28;19965;-82
2023/12/31 03:25:21;;;;;;;;;;;;;;;;;;4988472;28;19943;-82
2023/12/31 03:27:47;;;;;;;;;;;;;;;;;;4998507;28;19921;-82
2023/12/31 03:30:15;;;;;;;;;;;;;;;;;;5013780;28;20008;-82
2023/12/31 03:32:42;;;;;;;;;;;;;;;;;;4998407;28;19937;-82
2023/12/31 03:35:08;;;;;;;;;;;;;;;;;;5014152;28;19929;-82
2023/12/31 03:37:35;;;;;;;;;;;;;;;;;;4998358;28;19981;-82
2023/12/31 03:40:03;;;;;;;;;;;;;;;;;;5014456;28;19921;-82
2023/12/31 03:42:30;;;;;;;;;;;;;;;;;;4997591;28;19921;-82
2023/12/31 03:44:57;;;;;;;;;;;;;;;;;;5014069;28;19921;-82
2023/12/31 03:47:23;;;;;;;;;;;;;;;;;;5013958;28;19929;-82
2023/12/31 03:49:50;;;;;;;;;;;;;;;;;;4998065;28;19956;-82
2023/12/31 03:52:17;;;;;;;;;;;;;;;;;;5014885;28;19959;-81
2023/12/31 03:54:43;;;;;;;;;;;;;;;;;;4997935;28;20276;-82
2023/12/31 03:57:10;;;;;;;;;;;;;;;;;;4997448;28;20291;-82
2023/12/31 03:59:37;;;;;;;;;;;;;;;;;;4997964;28;20020;-82
2023/12/31 04:02:03;;;;;;;;;;;;;;;;;;4997324;28;19922;-80
2023/12/31 04:04:30;;;;;;;;;;;;;;;;;;5013972;28;19957;-82
2023/12/31 04:06:57;;;;;;;;;;;;;;;;;;5015036;28;19933;-82
2023/12/31 04:09:24;;;;;;;;;;;;;;;;;;5014685;28;19929;-82
2023/12/31 04:11:50;;;;;;;;;;;;;;;;;;4957632;28;19929;-82
2023/12/31 04:14:18;;;;;;;;;;;;;;;;;;4973532;28;19922;-82
2023/12/31 04:16:45;;;;;;;;;;;;;;;;;;4973608;28;20293;-82
2023/12/31 04:19:14;;;;;;;;;;;;;;;;;;4973227;28;19922;-82
2023/12/31 04:21:42;;;;;;;;;;;;;;;;;;4957408;28;19922;-82
2023/12/31 04:24:08;;;;;;;;;;;;;;;;;;4965052;28;19922;-81
2023/12/31 04:26:35;;;;;;;;;;;;;;;;;;4995968;28;19928;-82
2023/12/31 04:29:02;;;;;;;;;;;;;;;;;;5013849;28;19922;-82
2023/12/31 04:31:28;;;;;;;;;;;;;;;;;;5011601;28;19929;-81
2023/12/31 04:33:55;;;;;;;;;;;;;;;;;;5012108;28;20579;-82
2023/12/31 04:36:22;;;;;;;;;;;;;;;;;;4995179;28;20016;-81
2023/12/31 04:38:49;;;;;;;;;;;;;;;;;;5011832;28;19922;-81
2023/12/31 04:41:18;;;;;;;;;;;;;;;;;;4979267;28;19928;-82
2023/12/31 04:43:45;;;;;;;;;;;;;;;;;;4993630;28;19922;-81
2023/12/31 04:46:12;;;;;;;;;;;;;;;;;;4977025;28;20389;-81
2023/12/31 04:48:41;;;;;;;;;;;;;;;;;;4994907;28;19991;-81
2023/12/31 04:51:07;;;;;;;;;;;;;;;;;;4976866;28;19945;-82
2023/12/31 04:53:36;;;;;;;;;;;;;;;;;;4993614;28;19928;-82
2023/12/31 04:56:02;;;;;;;;;;;;;;;;;;4993268;28;19925;-82
2023/12/31 04:58:29;;;;;;;;;;;;;;;;;;4977109;28;19929;-81
2023/12/31 05:00:56;;;;;;;;;;;;;;;;;;4977173;28;19969;-82
2023/12/31 05:03:23;;;;;;;;;;;;;;;;;;4976792;28;19980;-81
2023/12/31 05:05:49;;;;;;;;;;;;;;;;;;4977402;28;19928;-81
2023/12/31 05:08:16;;;;;;;;;;;;;;;;;;4976692;28;19926;-82
2023/12/31 05:10:43;;;;;;;;;;;;;;;;;;4994509;28;20071;-82
2023/12/31 05:13:09;;;;;;;;;;;;;;;;;;4977595;28;20009;-82
2023/12/31 05:15:36;;;;;;;;;;;;;;;;;;4977155;28;19922;-82
2023/12/31 05:18:03;;;;;;;;;;;;;;;;;;4976693;28;19922;-82
2023/12/31 05:20:30;;;;;;;;;;;;;;;;;;4976625;28;19929;-82
2023/12/31 05:22:56;;;;;;;;;;;;;;;;;;4977149;28;19922;-82
2023/12/31 05:25:23;;;;;;;;;;;;;;;;;;4986646;28;19968;-82
2023/12/31 05:27:50;;;;;;;;;;;;;;;;;;4996648;28;19929;-82
2023/12/31 05:30:16;;;;;;;;;;;;;;;;;;5011825;28;19936;-83
2023/12/31 05:32:43;;;;;;;;;;;;;;;;;;4996543;28;19921;-82
2023/12/31 05:35:10;;;;;;;;;;;;;;;;;;4996127;28;19921;-82
2023/12/31 05:37:37;;;;;;;;;;;;;;;;;;4997163;28;19921;-83
2023/12/31 05:40:30;;;;;;;;;;;;;;;;;;4996674;28;19925;-89
2023/12/31 05:42:57;;;;;;;;;;;;;;;;;;4992391;28;19944;-82
2023/12/31 05:45:24;;;;;;;;;;;;;;;;;;4995664;28;19921;-82
2023/12/31 05:47:50;;;;;;;;;;;;;;;;;;5012593;28;19944;-82
2023/12/31 05:50:17;;;;;;;;;;;;;;;;;;4995698;28;19961;-82
2023/12/31 05:52:44;;;;;;;;;;;;;;;;;;4996363;28;20272;-82
2023/12/31 05:55:12;;;;;;;;;;;;;;;;;;4996469;28;20166;-81
2023/12/31 05:57:39;;;;;;;;;;;;;;;;;;4996814;28;19928;-82
2023/12/31 06:00:07;;;;;;;;;;;;;;;;;;5035249;22;19999;-81
2023/12/31 06:02:35;;;;;;;;;;;;;;;;;;5047723;28;19927;-81
2023/12/31 06:07:34;;;;;;;;;;;;;;;;;;5103151;28;20275;-81
2023/12/31 06:10:03;;;;;;;;;;;;;;;;;;5084842;28;19969;-83
2023/12/31 06:12:31;;;;;;;;;;;;;;;;;;5065683;28;20416;-81
2023/12/31 06:15:06;;;;;;;;;;;;;;;;;;5093847;28;19973;-83
2023/12/31 06:18:09;;;;;;;;;;;;;;;;;;5085083;28;19920;-90
2023/12/31 06:20:36;;;;;;;;;;;;;;;;;;5074435;28;19920;-82
2023/12/31 06:23:03;;;;;;;;;;;;;;;;;;5046357;28;20387;-80
2023/12/31 06:25:30;;;;;;;;;;;;;;;;;;5078789;28;19981;-82
2023/12/31 06:27:57;;;;;;;;;;;;;;;;;;5067192;28;19928;-82
2023/12/31 06:30:24;;;;;;;;;;;;;;;;;;5069979;28;20271;-82
2023/12/31 06:32:50;;;;;;;;;;;;;;;;;;5069691;28;19966;-81
2023/12/31 06:35:17;;;;;;;;;;;;;;;;;;5076970;28;19920;-82
2023/12/31 06:37:44;;;;;;;;;;;;;;;;;;5065769;28;19925;-82
2023/12/31 06:40:11;;;;;;;;;;;;;;;;;;5072881;28;19920;-81
2023/12/31 06:42:38;;;;;;;;;;;;;;;;;;5088365;28;19924;-82
2023/12/31 06:45:05;;;;;;;;;;;;;;;;;;5081553;28;20006;-82
2023/12/31 06:47:31;;;;;;;;;;;;;;;;;;5073051;28;19931;-82
2023/12/31 06:49:58;;;;;;;;;;;;;;;;;;5067796;28;19974;-82
2023/12/31 06:52:25;;;;;;;;;;;;;;;;;;5066017;28;19931;-81
2023/12/31 06:54:51;;;;;;;;;;;;;;;;;;5051938;28;20256;-81
2023/12/31 06:57:18;;;;;;;;;;;;;;;;;;5073953;28;19940;-82
2023/12/31 06:59:45;;;;;;;;;;;;;;;;;;5074488;28;19920;-82
2023/12/31 07:02:12;;;;;;;;;;;;;;;;;;5066667;28;19920;-82
2023/12/31 07:04:39;;;;;;;;;;;;;;;;;;5081085;28;19924;-82
2023/12/31 07:07:06;;;;;;;;;;;;;;;;;;5070591;28;20321;-81
2023/12/31 07:09:32;;;;;;;;;;;;;;;;;;5069786;28;19928;-82
2023/12/31 07:11:59;;;;;;;;;;;;;;;;;;5068927;28;19920;-81
2023/12/31 07:14:26;;;;;;;;;;;;;;;;;;5064555;28;19927;-82
2023/12/31 07:16:53;;;;;;;;;;;;;;;;;;5039550;28;19947;-82
2023/12/31 07:19:20;;;;;;;;;;;;;;;;;;5055629;28;19931;-82
2023/12/31 07:21:47;;;;;;;;;;;;;;;;;;5056268;28;19925;-81
2023/12/31 07:24:14;;;;;;;;;;;;;;;;;;5073846;28;20352;-82
2023/12/31 07:26:40;;;;;;;;;;;;;;;;;;5094619;28;19920;-81
2023/12/31 07:29:07;;;;;;;;;;;;;;;;;;5095475;28;20366;-80
2023/12/31 07:31:39;;;;;;;;;;;;;;;;;;5094889;28;19927;-82
2023/12/31 07:34:06;;;;;;;;;;;;;;;;;;5094979;28;19927;-81
2023/12/31 07:36:34;;;;;;;;;;;;;;;;;;5095633;28;19920;-81
2023/12/31 07:39:00;;;;;;;;;;;;;;;;;;5074127;28;19931;-81
2023/12/31 07:41:27;;;;;;;;;;;;;;;;;;5071363;28;20390;-82
2023/12/31 07:43:54;;;;;;;;;;;;;;;;;;5058115;28;19975;-82
2023/12/31 07:46:22;;;;;;;;;;;;;;;;;;5062160;28;20334;-82
2023/12/31 07:48:49;;;;;;;;;;;;;;;;;;5071363;28;20378;-82
2023/12/31 07:51:16;;;;;;;;;;;;;;;;;;5093027;28;19967;-82
2023/12/31 07:53:43;;;;;;;;;;;;;;;;;;5066311;28;19924;-81
2023/12/31 07:56:10;;;;;;;;;;;;;;;;;;5092636;28;19928;-81
2023/12/31 07:58:36;;;;;;;;;;;;;;;;;;5093791;28;19924;-81
2023/12/31 08:01:03;;;;;;;;;;;;;;;;;;5093621;28;19965;-82
2023/12/31 08:03:30;;;;;;;;;;;;;;;;;;5067381;28;20424;-82
2023/12/31 08:05:57;;;;;;;;;;;;;;;;;;5085722;28;20365;-82
2023/12/31 08:08:24;;;;;;;;;;;;;;;;;;5086121;28;19932;-82
2023/12/31 08:10:51;;;;;;;;;;;;;;;;;;5086687;28;19981;-82
2023/12/31 08:13:18;;;;;;;;;;;;;;;;;;5090828;28;19995;-82
2023/12/31 08:15:45;;;;;;;;;;;;;;;;;;5093364;28;19977;-82
2023/12/31 08:18:12;;;;;;;;;;;;;;;;;;5091568;28;19920;-82
2023/12/31 08:20:39;;;;;;;;;;;;;;;;;;5092319;28;19999;-82
2023/12/31 08:23:06;;;;;;;;;;;;;;;;;;5072050;28;20265;-82
2023/12/31 08:25:33;;;;;;;;;;;;;;;;;;5092699;28;19924;-82
2023/12/31 08:31:31;;;;;;;;;;;;;;;;;;5024342;22;20675;-82
2023/12/31 08:33:58;;;;;;;;;;;;;;;;;;4988389;28;19929;-81
2023/12/31 08:36:25;;;;;;;;;;;;;;;;;;5003292;28;19922;-82
2023/12/31 08:38:51;;;;;;;;;;;;;;;;;;5003184;28;20284;-82
2023/12/31 08:41:18;;;;;;;;;;;;;;;;;;5001165;28;19921;-82
2023/12/31 08:43:45;;;;;;;;;;;;;;;;;;5011901;28;19921;-82
2023/12/31 08:46:12;;;;;;;;;;;;;;;;;;5008840;28;19932;-82
2023/12/31 08:48:39;;;;;;;;;;;;;;;;;;5011362;28;19944;-82
2023/12/31 08:51:06;;;;;;;;;;;;;;;;;;5004752;28;20015;-82
2023/12/31 08:53:32;;;;;;;;;;;;;;;;;;5012625;28;19927;-82
2023/12/31 08:55:59;;;;;;;;;;;;;;;;;;5010941;28;19922;-82
2023/12/31 08:58:26;;;;;;;;;;;;;;;;;;5012150;28;19925;-82
2023/12/31 09:00:53;;;;;;;;;;;;;;;;;;5006384;28;19929;-82
2023/12/31 09:03:20;;;;;;;;;;;;;;;;;;5010826;28;19929;-82
2023/12/31 09:05:48;;;;;;;;;;;;;;;;;;5012221;28;19936;-82
2023/12/31 09:08:15;;;;;;;;;;;;;;;;;;4994512;28;19962;-82
2023/12/31 09:10:42;;;;;;;;;;;;;;;;;;5010505;28;19929;-83
2023/12/31 09:13:09;;;;;;;;;;;;;;;;;;5010479;28;20275;-82
2023/12/31 09:15:36;;;;;;;;;;;;;;;;;;5010526;28;19921;-82
2023/12/31 09:18:03;;;;;;;;;;;;;;;;;;5010766;28;19928;-82
2023/12/31 09:20:31;;;;;;;;;;;;;;;;;;5010521;28;19922;-82
2023/12/31 09:22:58;;;;;;;;;;;;;;;;;;5009894;28;19922;-82
2023/12/31 09:25:26;;;;;;;;;;;;;;;;;;5009418;28;19949;-82
2023/12/31 09:27:53;;;;;;;;;;;;;;;;;;5006259;28;19967;-82
2023/12/31 09:30:20;;;;;;;;;;;;;;;;;;5001227;28;19928;-81
2023/12/31 09:32:46;;;;;;;;;;;;;;;;;;5030905;28;19931;-81
2023/12/31 09:35:13;;;;;;;;;;;;;;;;;;5031364;28;19925;-80
2023/12/31 09:37:39;;;;;;;;;;;;;;;;;;5030287;28;19921;-81
2023/12/31 09:40:06;;;;;;;;;;;;;;;;;;5029087;28;20326;-81
2023/12/31 09:42:40;;;;;;;;;;;;;;;;;;5013864;28;19920;-88
2023/12/31 09:45:08;;;;;;;;;;;;;;;;;;5017930;28;20398;-81
2023/12/31 09:47:35;;;;;;;;;;;;;;;;;;5020612;28;19933;-81
2023/12/31 09:50:03;;;;;;;;;;;;;;;;;;5000280;28;20398;-82
2023/12/31 09:52:31;;;;;;;;;;;;;;;;;;5016124;28;20020;-80
2023/12/31 09:54:59;;;;;;;;;;;;;;;;;;5010766;28;19921;-79
2023/12/31 09:57:26;;;;;;;;;;;;;;;;;;5012203;28;19991;-81
2023/12/31 09:59:54;;;;;;;;;;;;;;;;;;5013743;28;19925;-78
2023/12/31 10:02:22;;;;;;;;;;;;;;;;;;5030485;28;19920;-80
2023/12/31 10:04:49;;;;;;;;;;;;;;;;;;5012701;28;19925;-81
2023/12/31 10:07:16;;;;;;;;;;;;;;;;;;5013201;28;19936;-80
2023/12/31 10:09:44;;;;;;;;;;;;;;;;;;5030320;28;19920;-87
2023/12/31 10:12:11;;;;;;;;;;;;;;;;;;5031072;28;19925;-82
2023/12/31 10:14:38;;;;;;;;;;;;;;;;;;5013656;28;19921;-83
2023/12/31 10:17:07;;;;;;;;;;;;;;;;;;5026728;28;20003;-82
2023/12/31 10:19:34;;;;;;;;;;;;;;;;;;5009899;28;19925;-82
2023/12/31 10:22:04;;;;;;;;;;;;;;;;;;5027498;28;20261;-81
2023/12/31 10:24:31;;;;;;;;;;;;;;;;;;5021067;28;20016;-82
2023/12/31 10:27:03;;;;;;;;;;;;;;;;;;5020599;28;20319;-83
2023/12/31 10:29:31;;;;;;;;;;;;;;;;;;4987799;28;20056;-82
2023/12/31 10:31:58;;;;;;;;;;;;;;;;;;5013329;28;20280;-82
2023/12/31 10:34:27;;;;;;;;;;;;;;;;;;5029050;28;20263;-89
2023/12/31 10:37:05;;;;;;;;;;;;;;;;;;5005066;28;19965;-77
2023/12/31 10:39:34;;;;;;;;;;;;;;;;;;5018020;28;19932;-82
2023/12/31 10:42:04;;;;;;;;;;;;;;;;;;5000512;28;19921;-82
2023/12/31 10:44:33;;;;;;;;;;;;;;;;;;5012000;28;20334;-82
2023/12/31 10:47:03;;;;;;;;;;;;;;;;;;5018260;28;19920;-81
2023/12/31 10:49:31;;;;;;;;;;;;;;;;;;5004134;28;19921;-81
2023/12/31 10:52:02;;;;;;;;;;;;;;;;;;5031853;28;19925;-81
2023/12/31 10:54:42;;;;;;;;;;;;;;;;;;5012431;28;19924;-81
2023/12/31 10:57:09;;;;;;;;;;;;;;;;;;5033838;28;19921;-82
2023/12/31 10:59:37;;;;;;;;;;;;;;;;;;5016921;28;19922;-81
2023/12/31 11:02:04;;;;;;;;;;;;;;;;;;5041229;28;19924;-81
2023/12/31 11:04:31;;;;;;;;;;;;;;;;;;5031587;28;19929;-81
2023/12/31 11:07:01;;;;;;;;;;;;;;;;;;5010385;28;20364;-82
2023/12/31 11:09:28;;;;;;;;;;;;;;;;;;4992918;28;19949;-82
2023/12/31 11:11:55;;;;;;;;;;;;;;;;;;5028095;28;20011;-81
2023/12/31 11:14:28;;;;;;;;;;;;;;;;;;5029037;28;19921;-88
2023/12/31 11:16:55;;;;;;;;;;;;;;;;;;5032744;28;19924;-81
2023/12/31 11:19:32;;;;;;;;;;;;;;;;;;5032742;28;19967;-81
2023/12/31 11:22:25;;;;;;;;;;;;;;;;;;5031402;28;20012;-82
2023/12/31 11:24:55;;;;;;;;;;;;;;;;;;5027816;28;19921;-80
2023/12/31 11:27:22;;;;;;;;;;;;;;;;;;5032323;28;19937;-80
2023/12/31 11:29:49;;;;;;;;;;;;;;;;;;5032212;28;19928;-81
2023/12/31 11:32:18;;;;;;;;;;;;;;;;;;5017358;28;19921;-80
2023/12/31 11:34:52;;;;;;;;;;;;;;;;;;5013075;28;19921;-81
2023/12/31 11:37:19;;;;;;;;;;;;;;;;;;5010311;28;19928;-81
2023/12/31 11:39:52;;;;;;;;;;;;;;;;;;5011781;28;19979;-82
2023/12/31 11:42:19;;;;;;;;;;;;;;;;;;5007605;28;19953;-82
2023/12/31 11:44:46;;;;;;;;;;;;;;;;;;5022453;28;19933;-81
2023/12/31 11:47:16;;;;;;;;;;;;;;;;;;4997759;28;24189;-81
2023/12/31 11:49:46;;;;;;;;;;;;;;;;;;5021394;28;20443;-81
2023/12/31 11:52:13;;;;;;;;;;;;;;;;;;5011124;28;19957;-81
2023/12/31 11:54:40;;;;;;;;;;;;;;;;;;5012766;28;19921;-81
2023/12/31 11:57:08;;;;;;;;;;;;;;;;;;5007251;28;19943;-82
2023/12/31 11:59:38;;;;;;;;;;;;;;;;;;5009662;28;19930;-82
2023/12/31 12:02:06;;;;;;;;;;;;;;;;;;5008251;28;20399;-81
2023/12/31 12:04:34;;;;;;;;;;;;;;;;;;5020564;28;19967;-82
2023/12/31 12:07:01;;;;;;;;;;;;;;;;;;5010982;28;19922;-82
2023/12/31 12:11:12;;;;;;;;;;;;;;;;;;5070215;27;19973;-81
2023/12/31 12:13:38;;;;;;;;;;;;;;;;;;5046217;28;19925;-83
2023/12/31 12:16:05;;;;;;;;;;;;;;;;;;5078853;28;19978;-83
2023/12/31 12:18:32;;;;;;;;;;;;;;;;;;5052603;28;20374;-82
2023/12/31 12:20:59;;;;;;;;;;;;;;;;;;5048544;28;19932;-83
2023/12/31 12:23:26;;;;;;;;;;;;;;;;;;5054556;28;20015;-83
2023/12/31 12:27:03;;;;;;;;;;;;;;;;;;5068771;27;19978;-81
2023/12/31 12:29:33;;;;;;;;;;;;;;;;;;5053364;28;19939;-82
2023/12/31 12:32:02;;;;;;;;;;;;;;;;;;5047450;28;19929;-81
2023/12/31 12:34:30;;;;;;;;;;;;;;;;;;5055838;28;19940;-82
2023/12/31 12:36:58;;;;;;;;;;;;;;;;;;5042973;28;19929;-82
2023/12/31 12:39:24;;;;;;;;;;;;;;;;;;5060556;28;19924;-82
2023/12/31 12:41:52;;;;;;;;;;;;;;;;;;5054385;28;21708;-82
2023/12/31 12:44:19;;;;;;;;;;;;;;;;;;5059495;28;19994;-83
2023/12/31 12:46:46;;;;;;;;;;;;;;;;;;5047084;28;20375;-81
2023/12/31 12:49:13;;;;;;;;;;;;;;;;;;5059091;28;20368;-82
2023/12/31 12:51:40;;;;;;;;;;;;;;;;;;5056709;28;20025;-81
2023/12/31 12:54:08;;;;;;;;;;;;;;;;;;5063427;28;20011;-82
2023/12/31 12:56:34;;;;;;;;;;;;;;;;;;5068348;28;19924;-82
2023/12/31 12:59:03;;;;;;;;;;;;;;;;;;5066939;28;20268;-82
2023/12/31 13:01:30;;;;;;;;;;;;;;;;;;5066245;28;20378;-82
2023/12/31 13:03:57;;;;;;;;;;;;;;;;;;5066424;28;19947;-82
2023/12/31 13:06:23;;;;;;;;;;;;;;;;;;5067286;28;20264;-82
2023/12/31 13:08:50;;;;;;;;;;;;;;;;;;5065469;28;19980;-82
2023/12/31 13:11:17;;;;;;;;;;;;;;;;;;5062670;28;19928;-82
2023/12/31 13:13:45;;;;;;;;;;;;;;;;;;5047722;28;19931;-82
2023/12/31 13:16:12;;;;;;;;;;;;;;;;;;5046362;28;19932;-82
2023/12/31 13:18:48;;;;;;;;;;;;;;;;;;5064950;28;19925;-82
2023/12/31 13:21:15;;;;;;;;;;;;;;;;;;5082700;28;19990;-82
2023/12/31 13:23:43;;;;;;;;;;;;;;;;;;5066393;28;20008;-82
2023/12/31 13:26:09;;;;;;;;;;;;;;;;;;5062612;28;19925;-81
2023/12/31 13:28:37;;;;;;;;;;;;;;;;;;5067032;28;19928;-90
2023/12/31 13:31:13;;;;;;;;;;;;;;;;;;5067198;28;20367;-81
2023/12/31 13:33:42;;;;;;;;;;;;;;;;;;5065825;28;19925;-82
2023/12/31 13:36:09;;;;;;;;;;;;;;;;;;5065053;28;20363;-81
2023/12/31 13:38:35;;;;;;;;;;;;;;;;;;5048442;28;20382;-82
2023/12/31 13:41:02;;;;;;;;;;;;;;;;;;5049823;28;19925;-82
2023/12/31 13:43:29;;;;;;;;;;;;;;;;;;5045435;28;20430;-82
2023/12/31 13:45:55;;;;;;;;;;;;;;;;;;5031350;28;20020;-82
2023/12/31 13:48:22;;;;;;;;;;;;;;;;;;5044499;28;20003;-81
2023/12/31 13:50:49;;;;;;;;;;;;;;;;;;5052912;28;19932;-82
2023/12/31 13:53:16;;;;;;;;;;;;;;;;;;5047537;28;19925;-81
2023/12/31 13:55:42;;;;;;;;;;;;;;;;;;5043533;28;19983;-81
2023/12/31 13:58:09;;;;;;;;;;;;;;;;;;5048233;28;19929;-81
2023/12/31 14:00:36;;;;;;;;;;;;;;;;;;5051436;28;19925;-81
2023/12/31 14:03:03;;;;;;;;;;;;;;;;;;5048034;28;19925;-82
2023/12/31 14:05:33;;;;;;;;;;;;;;;;;;5030877;28;19932;-82
2023/12/31 14:08:00;;;;;;;;;;;;;;;;;;5031327;28;19925;-82
2023/12/31 14:10:27;;;;;;;;;;;;;;;;;;5036603;28;19959;-82
2023/12/31 14:12:54;;;;;;;;;;;;;;;;;;5030968;28;19929;-82
2023/12/31 14:15:20;;;;;;;;;;;;;;;;;;5048583;28;19956;-82
2023/12/31 14:17:48;;;;;;;;;;;;;;;;;;5040991;28;19929;-82
2023/12/31 14:20:15;;;;;;;;;;;;;;;;;;5056998;28;19926;-81
2023/12/31 14:22:42;;;;;;;;;;;;;;;;;;5034268;28;19929;-82
2023/12/31 14:25:09;;;;;;;;;;;;;;;;;;5027906;28;20019;-82
2023/12/31 14:27:36;;;;;;;;;;;;;;;;;;5017450;28;20287;-81
2023/12/31 14:30:06;;;;;;;;;;;;;;;;;;5029301;28;19936;-82
2023/12/31 14:32:32;;;;;;;;;;;;;;;;;;5030891;28;19925;-81
2023/12/31 14:35:00;;;;;;;;;;;;;;;;;;5048552;28;20364;-82
2023/12/31 14:37:27;;;;;;;;;;;;;;;;;;5018661;28;20260;-82
2023/12/31 14:39:55;;;;;;;;;;;;;;;;;;5047781;28;19971;-81
2023/12/31 14:42:22;;;;;;;;;;;;;;;;;;5047677;28;19933;-82
2023/12/31 14:44:49;;;;;;;;;;;;;;;;;;5032540;28;19956;-82
2023/12/31 14:47:16;;;;;;;;;;;;;;;;;;5007236;28;19936;-82
2023/12/31 14:49:42;;;;;;;;;;;;;;;;;;5048439;28;20302;-81
2023/12/31 14:52:09;;;;;;;;;;;;;;;;;;5036700;28;19925;-82
2023/12/31 14:54:36;;;;;;;;;;;;;;;;;;5038200;28;19925;-82
2023/12/31 14:57:04;;;;;;;;;;;;;;;;;;5031424;28;19947;-81
2023/12/31 14:59:31;;;;;;;;;;;;;;;;;;5046110;28;19924;-82
2023/12/31 15:01:58;;;;;;;;;;;;;;;;;;5046345;28;20008;-82
2023/12/31 15:04:25;;;;;;;;;;;;;;;;;;5032242;28;19925;-82
2023/12/31 15:06:53;;;;;;;;;;;;;;;;;;5050702;28;19932;-82
2023/12/31 15:09:21;;;;;;;;;;;;;;;;;;5049588;28;19925;-82
2023/12/31 15:11:48;;;;;;;;;;;;;;;;;;5033113;28;19925;-81
2023/12/31 15:14:15;;;;;;;;;;;;;;;;;;5034842;28;19975;-82
2023/12/31 15:16:42;;;;;;;;;;;;;;;;;;5051171;28;20364;-82
2023/12/31 15:19:09;;;;;;;;;;;;;;;;;;5031806;28;19925;-80
2023/12/31 15:21:36;;;;;;;;;;;;;;;;;;5040405;28;19948;-88
2023/12/31 15:24:06;;;;;;;;;;;;;;;;;;5043421;28;20027;-85
2023/12/31 15:26:35;;;;;;;;;;;;;;;;;;5060230;28;19932;-86
2023/12/31 15:29:03;;;;;;;;;;;;;;;;;;5024327;28;19940;-81
2023/12/31 15:31:30;;;;;;;;;;;;;;;;;;5057766;28;20323;-81
2023/12/31 15:33:56;;;;;;;;;;;;;;;;;;5045157;28;20022;-81
2023/12/31 15:36:23;;;;;;;;;;;;;;;;;;5031000;28;20101;-81
2023/12/31 15:38:50;;;;;;;;;;;;;;;;;;5040049;28;20253;-81
2023/12/31 15:41:17;;;;;;;;;;;;;;;;;;5036998;28;19931;-81
2023/12/31 15:43:44;;;;;;;;;;;;;;;;;;5050028;28;20008;-81
2023/12/31 15:46:11;;;;;;;;;;;;;;;;;;5020706;28;19926;-80
2023/12/31 15:48:38;;;;;;;;;;;;;;;;;;5036327;28;19931;-81
2023/12/31 15:51:05;;;;;;;;;;;;;;;;;;5036916;28;19924;-81
2023/12/31 15:53:31;;;;;;;;;;;;;;;;;;5048056;28;19932;-81
2023/12/31 15:55:58;;;;;;;;;;;;;;;;;;5048850;28;19933;-81
2023/12/31 15:58:25;;;;;;;;;;;;;;;;;;5049845;28;19928;-81
2023/12/31 16:00:52;;;;;;;;;;;;;;;;;;5047792;28;19972;-81
2023/12/31 16:03:18;;;;;;;;;;;;;;;;;;5045987;28;20382;-82
2023/12/31 16:05:48;;;;;;;;;;;;;;;;;;5046694;28;19925;-87
2023/12/31 16:08:50;;;;;;;;;;;;;;;;;;5032324;28;20566;-82
2023/12/31 16:11:16;;;;;;;;;;;;;;;;;;5044195;28;19968;-82
2023/12/31 16:13:43;;;;;;;;;;;;;;;;;;5040027;28;19929;-82
2023/12/31 16:16:10;;;;;;;;;;;;;;;;;;5015786;28;20375;-81
2023/12/31 16:18:38;;;;;;;;;;;;;;;;;;5062937;28;19925;-81
2023/12/31 16:21:05;;;;;;;;;;;;;;;;;;5047591;28;19933;-81
2023/12/31 16:23:31;;;;;;;;;;;;;;;;;;5049025;28;19936;-81
2023/12/31 16:25:58;;;;;;;;;;;;;;;;;;5045937;28;19957;-81
2023/12/31 16:28:25;;;;;;;;;;;;;;;;;;5023572;28;20368;-81
2023/12/31 16:30:51;;;;;;;;;;;;;;;;;;5027117;28;19929;-82
2023/12/31 16:33:18;;;;;;;;;;;;;;;;;;5025852;28;19932;-82
2023/12/31 16:35:45;;;;;;;;;;;;;;;;;;5035012;28;20437;-86
2023/12/31 16:38:15;;;;;;;;;;;;;;;;;;5022960;28;19931;-83
2023/12/31 16:40:42;;;;;;;;;;;;;;;;;;5043838;28;20372;-82
2023/12/31 16:43:08;;;;;;;;;;;;;;;;;;5043690;28;19932;-82
2023/12/31 16:45:35;;;;;;;;;;;;;;;;;;5045896;28;20020;-83
2023/12/31 16:48:02;;;;;;;;;;;;;;;;;;5052889;28;19929;-83
2023/12/31 16:50:29;;;;;;;;;;;;;;;;;;5022000;28;20005;-82
2023/12/31 16:52:56;;;;;;;;;;;;;;;;;;5023879;28;19972;-81
2023/12/31 16:55:23;;;;;;;;;;;;;;;;;;5042554;28;20311;-82
2023/12/31 16:57:50;;;;;;;;;;;;;;;;;;5042816;28;19925;-82